sensor_id;sensor_type;location;lat;lon;timestamp;P1;durP1;ratioP1;P2;durP2;ratioP2
15502;SDS011;7853;52.186;5.948;2023-07-31T00:04:12;0.93;;;0.76;;
15502;SDS011;7853;52.186;5.948;2023-07-31T00:04:12;1.35;;;0.80;;
15502;SDS011;7853;52.186;5.948;2023-07-31T00:04:13;1.10;;;0.76;;
15502;SDS011;7853;52.186;5.948;2023-07-31T00:04:21;1.01;;;0.69;;
15502;SDS011;7853;52.186;5.948;2023-07-31T00:05:28;1.06;;;0.79;;
15502;SDS011;7853;52.186;5.948;2023-07-31T00:06:31;1.38;;;0.81;;
15502;SDS011;7853;52.186;5.948;2023-07-31T00:07:33;1.19;;;0.78;;
15502;SDS011;7853;52.186;5.948;2023-07-31T00:08:34;0.85;;;0.72;;
15502;SDS011;7853;52.186;5.948;2023-07-31T00:09:35;1.40;;;0.87;;
15502;SDS011;7853;52.186;5.948;2023-07-31T00:10:35;0.95;;;0.72;;
15502;SDS011;7853;52.186;5.948;2023-07-31T00:11:35;1.13;;;0.70;;
15502;SDS011;7853;52.186;5.948;2023-07-31T00:12:35;1.08;;;0.73;;
15502;SDS011;7853;52.186;5.948;2023-07-31T00:13:35;1.22;;;0.75;;
15502;SDS011;7853;52.186;5.948;2023-07-31T00:14:35;0.72;;;0.66;;
15502;SDS011;7853;52.186;5.948;2023-07-31T00:15:35;1.01;;;0.74;;
15502;SDS011;7853;52.186;5.948;2023-07-31T00:16:35;0.79;;;0.68;;
15502;SDS011;7853;52.186;5.948;2023-07-31T00:17:35;1.79;;;0.76;;
15502;SDS011;7853;52.186;5.948;2023-07-31T00:18:35;1.39;;;0.75;;
15502;SDS011;7853;52.186;5.948;2023-07-31T00:19:35;1.02;;;0.78;;
15502;SDS011;7853;52.186;5.948;2023-07-31T00:20:35;1.51;;;0.71;;
15502;SDS011;7853;52.186;5.948;2023-07-31T00:21:35;1.15;;;0.77;;
15502;SDS011;7853;52.186;5.948;2023-07-31T00:22:35;0.84;;;0.73;;
15502;SDS011;7853;52.186;5.948;2023-07-31T00:23:35;1.12;;;0.77;;
15502;SDS011;7853;52.186;5.948;2023-07-31T00:24:35;2.28;;;0.88;;
15502;SDS011;7853;52.186;5.948;2023-07-31T00:25:35;1.04;;;0.79;;
15502;SDS011;7853;52.186;5.948;2023-07-31T00:26:35;1.04;;;0.75;;
15502;SDS011;7853;52.186;5.948;2023-07-31T00:27:35;1.08;;;0.83;;
15502;SDS011;7853;52.186;5.948;2023-07-31T00:28:35;0.87;;;0.72;;
15502;SDS011;7853;52.186;5.948;2023-07-31T00:29:35;1.03;;;0.89;;
15502;SDS011;7853;52.186;5.948;2023-07-31T00:30:35;1.07;;;0.85;;
15502;SDS011;7853;52.186;5.948;2023-07-31T00:31:35;1.21;;;0.78;;
15502;SDS011;7853;52.186;5.948;2023-07-31T00:32:35;1.01;;;0.73;;
15502;SDS011;7853;52.186;5.948;2023-07-31T00:33:35;1.42;;;0.75;;
15502;SDS011;7853;52.186;5.948;2023-07-31T00:34:35;1.39;;;0.87;;
15502;SDS011;7853;52.186;5.948;2023-07-31T00:35:35;1.13;;;0.78;;
15502;SDS011;7853;52.186;5.948;2023-07-31T00:36:35;1.17;;;0.77;;
15502;SDS011;7853;52.186;5.948;2023-07-31T00:37:35;0.86;;;0.76;;
15502;SDS011;7853;52.186;5.948;2023-07-31T00:38:35;0.99;;;0.73;;
15502;SDS011;7853;52.186;5.948;2023-07-31T00:39:35;1.47;;;0.79;;
15502;SDS011;7853;52.186;5.948;2023-07-31T00:40:35;1.29;;;0.82;;
15502;SDS011;7853;52.186;5.948;2023-07-31T00:41:35;2.19;;;0.88;;
15502;SDS011;7853;52.186;5.948;2023-07-31T00:42:35;0.96;;;0.82;;
15502;SDS011;7853;52.186;5.948;2023-07-31T00:43:35;0.86;;;0.73;;
15502;SDS011;7853;52.186;5.948;2023-07-31T00:44:35;1.15;;;0.79;;
15502;SDS011;7853;52.186;5.948;2023-07-31T00:45:35;0.88;;;0.75;;
15502;SDS011;7853;52.186;5.948;2023-07-31T00:46:35;0.99;;;0.83;;
15502;SDS011;7853;52.186;5.948;2023-07-31T00:47:35;1.12;;;0.74;;
15502;SDS011;7853;52.186;5.948;2023-07-31T00:48:35;1.06;;;0.76;;
15502;SDS011;7853;52.186;5.948;2023-07-31T00:49:35;0.81;;;0.66;;
15502;SDS011;7853;52.186;5.948;2023-07-31T00:50:35;1.23;;;0.97;;
15502;SDS011;7853;52.186;5.948;2023-07-31T00:51:35;0.95;;;0.75;;
15502;SDS011;7853;52.186;5.948;2023-07-31T00:52:35;0.85;;;0.69;;
15502;SDS011;7853;52.186;5.948;2023-07-31T00:53:35;0.67;;;0.63;;
15502;SDS011;7853;52.186;5.948;2023-07-31T00:54:35;1.05;;;0.81;;
15502;SDS011;7853;52.186;5.948;2023-07-31T00:55:35;1.19;;;0.76;;
15502;SDS011;7853;52.186;5.948;2023-07-31T00:56:35;0.84;;;0.63;;
15502;SDS011;7853;52.186;5.948;2023-07-31T00:57:35;0.97;;;0.69;;
15502;SDS011;7853;52.186;5.948;2023-07-31T00:58:35;0.83;;;0.65;;
15502;SDS011;7853;52.186;5.948;2023-07-31T00:59:35;1.31;;;0.81;;
15502;SDS011;7853;52.186;5.948;2023-07-31T01:00:35;1.41;;;0.69;;
15502;SDS011;7853;52.186;5.948;2023-07-31T01:01:35;0.83;;;0.70;;
15502;SDS011;7853;52.186;5.948;2023-07-31T01:02:35;0.90;;;0.73;;
15502;SDS011;7853;52.186;5.948;2023-07-31T01:03:37;0.99;;;0.69;;
15502;SDS011;7853;52.186;5.948;2023-07-31T01:04:35;0.84;;;0.63;;
15502;SDS011;7853;52.186;5.948;2023-07-31T01:05:36;0.85;;;0.69;;
15502;SDS011;7853;52.186;5.948;2023-07-31T01:06:36;1.19;;;0.87;;
15502;SDS011;7853;52.186;5.948;2023-07-31T01:07:37;1.19;;;0.76;;
15502;SDS011;7853;52.186;5.948;2023-07-31T01:08:37;1.01;;;0.70;;
15502;SDS011;7853;52.186;5.948;2023-07-31T01:09:36;1.26;;;0.69;;
15502;SDS011;7853;52.186;5.948;2023-07-31T01:10:36;0.97;;;0.73;;
15502;SDS011;7853;52.186;5.948;2023-07-31T01:11:37;0.88;;;0.70;;
15502;SDS011;7853;52.186;5.948;2023-07-31T01:12:35;0.93;;;0.78;;
15502;SDS011;7853;52.186;5.948;2023-07-31T01:13:35;1.27;;;0.86;;
15502;SDS011;7853;52.186;5.948;2023-07-31T01:14:35;1.54;;;0.96;;
15502;SDS011;7853;52.186;5.948;2023-07-31T01:15:35;1.80;;;0.89;;
15502;SDS011;7853;52.186;5.948;2023-07-31T01:16:35;1.44;;;0.90;;
15502;SDS011;7853;52.186;5.948;2023-07-31T01:17:35;1.48;;;0.95;;
15502;SDS011;7853;52.186;5.948;2023-07-31T01:18:35;1.84;;;1.15;;
15502;SDS011;7853;52.186;5.948;2023-07-31T01:19:35;1.92;;;1.14;;
15502;SDS011;7853;52.186;5.948;2023-07-31T01:20:35;1.30;;;1.10;;
15502;SDS011;7853;52.186;5.948;2023-07-31T01:21:41;2.91;;;1.91;;
15502;SDS011;7853;52.186;5.948;2023-07-31T01:22:39;2.84;;;1.47;;
15502;SDS011;7853;52.186;5.948;2023-07-31T01:23:36;3.36;;;1.46;;
15502;SDS011;7853;52.186;5.948;2023-07-31T01:24:36;4.35;;;1.62;;
15502;SDS011;7853;52.186;5.948;2023-07-31T01:25:43;4.05;;;1.46;;
15502;SDS011;7853;52.186;5.948;2023-07-31T01:26:36;2.51;;;1.50;;
15502;SDS011;7853;52.186;5.948;2023-07-31T01:27:35;2.36;;;1.72;;
15502;SDS011;7853;52.186;5.948;2023-07-31T01:28:39;3.98;;;2.14;;
15502;SDS011;7853;52.186;5.948;2023-07-31T01:29:36;5.13;;;2.04;;
15502;SDS011;7853;52.186;5.948;2023-07-31T01:30:37;4.88;;;2.25;;
15502;SDS011;7853;52.186;5.948;2023-07-31T01:31:35;5.99;;;2.53;;
15502;SDS011;7853;52.186;5.948;2023-07-31T01:32:35;3.95;;;2.12;;
15502;SDS011;7853;52.186;5.948;2023-07-31T01:33:35;3.81;;;2.02;;
15502;SDS011;7853;52.186;5.948;2023-07-31T01:34:35;4.88;;;2.31;;
15502;SDS011;7853;52.186;5.948;2023-07-31T01:35:35;5.88;;;2.49;;
15502;SDS011;7853;52.186;5.948;2023-07-31T01:36:35;5.92;;;2.92;;
15502;SDS011;7853;52.186;5.948;2023-07-31T01:37:35;5.78;;;2.86;;
15502;SDS011;7853;52.186;5.948;2023-07-31T01:38:35;5.48;;;2.89;;
15502;SDS011;7853;52.186;5.948;2023-07-31T01:39:35;6.89;;;3.17;;
15502;SDS011;7853;52.186;5.948;2023-07-31T01:40:35;8.77;;;3.26;;
15502;SDS011;7853;52.186;5.948;2023-07-31T01:41:35;6.91;;;3.41;;
15502;SDS011;7853;52.186;5.948;2023-07-31T01:42:35;11.21;;;4.03;;
15502;SDS011;7853;52.186;5.948;2023-07-31T01:43:35;6.62;;;2.85;;
15502;SDS011;7853;52.186;5.948;2023-07-31T01:44:35;7.34;;;3.09;;
15502;SDS011;7853;52.186;5.948;2023-07-31T01:45:35;7.63;;;3.28;;
15502;SDS011;7853;52.186;5.948;2023-07-31T01:46:35;8.63;;;3.54;;
15502;SDS011;7853;52.186;5.948;2023-07-31T01:47:35;8.23;;;3.19;;
15502;SDS011;7853;52.186;5.948;2023-07-31T01:48:35;7.55;;;3.43;;
15502;SDS011;7853;52.186;5.948;2023-07-31T01:49:35;9.54;;;3.88;;
15502;SDS011;7853;52.186;5.948;2023-07-31T01:50:35;7.21;;;3.37;;
15502;SDS011;7853;52.186;5.948;2023-07-31T01:51:35;8.77;;;4.03;;
15502;SDS011;7853;52.186;5.948;2023-07-31T01:52:35;8.47;;;3.72;;
15502;SDS011;7853;52.186;5.948;2023-07-31T01:53:35;8.72;;;3.51;;
15502;SDS011;7853;52.186;5.948;2023-07-31T01:54:35;7.65;;;3.60;;
15502;SDS011;7853;52.186;5.948;2023-07-31T01:55:35;7.57;;;3.52;;
15502;SDS011;7853;52.186;5.948;2023-07-31T01:56:35;7.39;;;3.80;;
15502;SDS011;7853;52.186;5.948;2023-07-31T01:57:36;7.81;;;3.47;;
15502;SDS011;7853;52.186;5.948;2023-07-31T01:58:35;7.77;;;3.24;;
15502;SDS011;7853;52.186;5.948;2023-07-31T01:59:35;6.91;;;3.49;;
15502;SDS011;7853;52.186;5.948;2023-07-31T02:00:35;8.58;;;3.59;;
15502;SDS011;7853;52.186;5.948;2023-07-31T02:01:35;7.06;;;3.26;;
15502;SDS011;7853;52.186;5.948;2023-07-31T02:02:35;7.72;;;3.59;;
15502;SDS011;7853;52.186;5.948;2023-07-31T02:03:35;7.72;;;3.77;;
15502;SDS011;7853;52.186;5.948;2023-07-31T02:04:35;6.04;;;3.06;;
15502;SDS011;7853;52.186;5.948;2023-07-31T02:05:35;5.81;;;3.35;;
15502;SDS011;7853;52.186;5.948;2023-07-31T02:06:35;5.95;;;3.14;;
15502;SDS011;7853;52.186;5.948;2023-07-31T02:07:35;5.35;;;2.99;;
15502;SDS011;7853;52.186;5.948;2023-07-31T02:08:35;5.40;;;2.83;;
15502;SDS011;7853;52.186;5.948;2023-07-31T02:09:35;6.41;;;2.95;;
15502;SDS011;7853;52.186;5.948;2023-07-31T02:10:35;7.74;;;3.45;;
15502;SDS011;7853;52.186;5.948;2023-07-31T02:11:35;6.73;;;3.18;;
15502;SDS011;7853;52.186;5.948;2023-07-31T02:12:35;7.04;;;2.99;;
15502;SDS011;7853;52.186;5.948;2023-07-31T02:13:35;5.23;;;2.62;;
15502;SDS011;7853;52.186;5.948;2023-07-31T02:14:35;4.87;;;2.98;;
15502;SDS011;7853;52.186;5.948;2023-07-31T02:15:35;4.99;;;2.82;;
15502;SDS011;7853;52.186;5.948;2023-07-31T02:16:35;5.26;;;2.59;;
15502;SDS011;7853;52.186;5.948;2023-07-31T02:17:35;4.55;;;2.45;;
15502;SDS011;7853;52.186;5.948;2023-07-31T02:18:35;3.53;;;2.04;;
15502;SDS011;7853;52.186;5.948;2023-07-31T02:19:35;3.17;;;1.95;;
15502;SDS011;7853;52.186;5.948;2023-07-31T02:20:35;2.83;;;1.78;;
15502;SDS011;7853;52.186;5.948;2023-07-31T02:21:35;3.15;;;1.70;;
15502;SDS011;7853;52.186;5.948;2023-07-31T02:22:35;3.52;;;1.97;;
15502;SDS011;7853;52.186;5.948;2023-07-31T02:23:35;3.45;;;1.75;;
15502;SDS011;7853;52.186;5.948;2023-07-31T02:24:35;3.83;;;1.85;;
15502;SDS011;7853;52.186;5.948;2023-07-31T02:25:35;3.21;;;1.55;;
15502;SDS011;7853;52.186;5.948;2023-07-31T02:26:35;2.58;;;1.64;;
15502;SDS011;7853;52.186;5.948;2023-07-31T02:27:35;2.39;;;1.46;;
15502;SDS011;7853;52.186;5.948;2023-07-31T02:28:35;3.13;;;1.88;;
15502;SDS011;7853;52.186;5.948;2023-07-31T02:29:35;2.92;;;1.66;;
15502;SDS011;7853;52.186;5.948;2023-07-31T02:30:35;3.13;;;1.97;;
15502;SDS011;7853;52.186;5.948;2023-07-31T02:31:35;3.69;;;1.76;;
15502;SDS011;7853;52.186;5.948;2023-07-31T02:32:35;2.78;;;1.74;;
15502;SDS011;7853;52.186;5.948;2023-07-31T02:33:35;2.80;;;1.74;;
15502;SDS011;7853;52.186;5.948;2023-07-31T02:34:35;3.55;;;1.77;;
15502;SDS011;7853;52.186;5.948;2023-07-31T02:35:37;3.47;;;1.80;;
15502;SDS011;7853;52.186;5.948;2023-07-31T02:36:33;3.31;;;1.75;;
15502;SDS011;7853;52.186;5.948;2023-07-31T02:37:34;2.80;;;1.69;;
15502;SDS011;7853;52.186;5.948;2023-07-31T02:38:34;3.85;;;2.10;;
15502;SDS011;7853;52.186;5.948;2023-07-31T02:39:35;3.39;;;2.06;;
15502;SDS011;7853;52.186;5.948;2023-07-31T02:40:35;4.14;;;2.03;;
15502;SDS011;7853;52.186;5.948;2023-07-31T02:41:35;4.60;;;2.16;;
15502;SDS011;7853;52.186;5.948;2023-07-31T02:42:35;4.02;;;2.13;;
15502;SDS011;7853;52.186;5.948;2023-07-31T02:43:35;3.57;;;2.26;;
15502;SDS011;7853;52.186;5.948;2023-07-31T02:44:35;5.31;;;2.16;;
15502;SDS011;7853;52.186;5.948;2023-07-31T02:45:35;4.19;;;2.17;;
15502;SDS011;7853;52.186;5.948;2023-07-31T02:46:35;3.41;;;1.95;;
15502;SDS011;7853;52.186;5.948;2023-07-31T02:47:35;4.75;;;2.43;;
15502;SDS011;7853;52.186;5.948;2023-07-31T02:48:35;4.16;;;2.20;;
15502;SDS011;7853;52.186;5.948;2023-07-31T02:49:35;4.00;;;2.07;;
15502;SDS011;7853;52.186;5.948;2023-07-31T02:50:35;4.35;;;2.28;;
15502;SDS011;7853;52.186;5.948;2023-07-31T02:51:35;4.76;;;2.64;;
15502;SDS011;7853;52.186;5.948;2023-07-31T02:52:35;4.34;;;2.50;;
15502;SDS011;7853;52.186;5.948;2023-07-31T02:53:35;5.66;;;2.63;;
15502;SDS011;7853;52.186;5.948;2023-07-31T02:54:35;5.13;;;2.41;;
15502;SDS011;7853;52.186;5.948;2023-07-31T02:55:35;5.65;;;2.72;;
15502;SDS011;7853;52.186;5.948;2023-07-31T02:56:35;5.49;;;3.14;;
15502;SDS011;7853;52.186;5.948;2023-07-31T02:57:35;6.64;;;2.88;;
15502;SDS011;7853;52.186;5.948;2023-07-31T02:58:35;7.63;;;3.19;;
15502;SDS011;7853;52.186;5.948;2023-07-31T02:59:35;8.37;;;3.35;;
15502;SDS011;7853;52.186;5.948;2023-07-31T03:00:35;7.59;;;3.35;;
15502;SDS011;7853;52.186;5.948;2023-07-31T03:01:35;5.69;;;2.79;;
15502;SDS011;7853;52.186;5.948;2023-07-31T03:02:35;7.57;;;3.04;;
15502;SDS011;7853;52.186;5.948;2023-07-31T03:03:35;8.70;;;3.23;;
15502;SDS011;7853;52.186;5.948;2023-07-31T03:04:35;7.37;;;3.14;;
15502;SDS011;7853;52.186;5.948;2023-07-31T03:05:35;8.90;;;3.53;;
15502;SDS011;7853;52.186;5.948;2023-07-31T03:06:35;7.15;;;2.87;;
15502;SDS011;7853;52.186;5.948;2023-07-31T03:07:35;6.65;;;2.83;;
15502;SDS011;7853;52.186;5.948;2023-07-31T03:08:35;8.54;;;3.45;;
15502;SDS011;7853;52.186;5.948;2023-07-31T03:09:35;8.21;;;3.53;;
15502;SDS011;7853;52.186;5.948;2023-07-31T03:10:35;7.30;;;3.72;;
15502;SDS011;7853;52.186;5.948;2023-07-31T03:11:35;7.58;;;3.48;;
15502;SDS011;7853;52.186;5.948;2023-07-31T03:12:35;9.25;;;3.50;;
15502;SDS011;7853;52.186;5.948;2023-07-31T03:13:35;8.94;;;3.92;;
15502;SDS011;7853;52.186;5.948;2023-07-31T03:14:35;7.27;;;3.48;;
15502;SDS011;7853;52.186;5.948;2023-07-31T03:15:35;9.37;;;3.73;;
15502;SDS011;7853;52.186;5.948;2023-07-31T03:16:35;7.74;;;3.36;;
15502;SDS011;7853;52.186;5.948;2023-07-31T03:17:35;6.49;;;3.01;;
15502;SDS011;7853;52.186;5.948;2023-07-31T03:18:35;8.03;;;3.35;;
15502;SDS011;7853;52.186;5.948;2023-07-31T03:19:35;8.26;;;3.22;;
15502;SDS011;7853;52.186;5.948;2023-07-31T03:20:35;7.49;;;3.44;;
15502;SDS011;7853;52.186;5.948;2023-07-31T03:21:35;9.83;;;3.76;;
15502;SDS011;7853;52.186;5.948;2023-07-31T03:22:35;9.25;;;3.38;;
15502;SDS011;7853;52.186;5.948;2023-07-31T03:23:35;8.44;;;3.74;;
15502;SDS011;7853;52.186;5.948;2023-07-31T03:24:35;10.12;;;3.90;;
15502;SDS011;7853;52.186;5.948;2023-07-31T03:25:35;9.56;;;3.59;;
15502;SDS011;7853;52.186;5.948;2023-07-31T03:26:35;8.83;;;3.47;;
15502;SDS011;7853;52.186;5.948;2023-07-31T03:27:35;6.15;;;3.17;;
15502;SDS011;7853;52.186;5.948;2023-07-31T03:28:35;9.66;;;4.12;;
15502;SDS011;7853;52.186;5.948;2023-07-31T03:29:35;8.05;;;3.55;;
15502;SDS011;7853;52.186;5.948;2023-07-31T03:30:35;10.91;;;4.21;;
15502;SDS011;7853;52.186;5.948;2023-07-31T03:31:35;9.00;;;3.74;;
15502;SDS011;7853;52.186;5.948;2023-07-31T03:32:35;8.75;;;3.71;;
15502;SDS011;7853;52.186;5.948;2023-07-31T03:33:35;9.26;;;3.96;;
15502;SDS011;7853;52.186;5.948;2023-07-31T03:34:35;9.28;;;4.00;;
15502;SDS011;7853;52.186;5.948;2023-07-31T03:35:35;8.61;;;3.93;;
15502;SDS011;7853;52.186;5.948;2023-07-31T03:36:35;11.30;;;3.78;;
15502;SDS011;7853;52.186;5.948;2023-07-31T03:37:35;9.52;;;3.92;;
15502;SDS011;7853;52.186;5.948;2023-07-31T03:38:35;9.63;;;4.39;;
15502;SDS011;7853;52.186;5.948;2023-07-31T03:39:35;8.71;;;3.64;;
15502;SDS011;7853;52.186;5.948;2023-07-31T03:40:35;9.51;;;3.60;;
15502;SDS011;7853;52.186;5.948;2023-07-31T03:41:35;9.43;;;3.64;;
15502;SDS011;7853;52.186;5.948;2023-07-31T03:42:35;9.16;;;3.61;;
15502;SDS011;7853;52.186;5.948;2023-07-31T03:43:35;9.06;;;4.02;;
15502;SDS011;7853;52.186;5.948;2023-07-31T03:44:35;9.39;;;3.92;;
15502;SDS011;7853;52.186;5.948;2023-07-31T03:45:35;11.88;;;3.97;;
15502;SDS011;7853;52.186;5.948;2023-07-31T03:46:35;10.13;;;3.95;;
15502;SDS011;7853;52.186;5.948;2023-07-31T03:47:36;10.03;;;3.70;;
15502;SDS011;7853;52.186;5.948;2023-07-31T03:48:34;11.01;;;4.51;;
15502;SDS011;7853;52.186;5.948;2023-07-31T03:49:34;10.79;;;4.56;;
15502;SDS011;7853;52.186;5.948;2023-07-31T03:50:35;12.18;;;4.77;;
15502;SDS011;7853;52.186;5.948;2023-07-31T03:51:35;8.81;;;3.41;;
15502;SDS011;7853;52.186;5.948;2023-07-31T03:52:35;8.89;;;3.69;;
15502;SDS011;7853;52.186;5.948;2023-07-31T03:53:35;12.17;;;4.38;;
15502;SDS011;7853;52.186;5.948;2023-07-31T03:54:35;10.22;;;4.18;;
15502;SDS011;7853;52.186;5.948;2023-07-31T03:55:35;11.42;;;4.24;;
15502;SDS011;7853;52.186;5.948;2023-07-31T03:56:35;8.95;;;3.61;;
15502;SDS011;7853;52.186;5.948;2023-07-31T03:57:35;11.12;;;4.37;;
15502;SDS011;7853;52.186;5.948;2023-07-31T03:58:35;11.83;;;4.68;;
15502;SDS011;7853;52.186;5.948;2023-07-31T03:59:35;9.92;;;4.24;;
15502;SDS011;7853;52.186;5.948;2023-07-31T04:00:35;9.78;;;4.47;;
15502;SDS011;7853;52.186;5.948;2023-07-31T04:01:35;11.73;;;4.40;;
15502;SDS011;7853;52.186;5.948;2023-07-31T04:02:35;11.90;;;4.43;;
15502;SDS011;7853;52.186;5.948;2023-07-31T04:03:35;10.85;;;4.57;;
15502;SDS011;7853;52.186;5.948;2023-07-31T04:04:35;11.85;;;4.51;;
15502;SDS011;7853;52.186;5.948;2023-07-31T04:05:37;13.16;;;4.66;;
15502;SDS011;7853;52.186;5.948;2023-07-31T04:06:35;9.84;;;4.03;;
15502;SDS011;7853;52.186;5.948;2023-07-31T04:07:35;10.57;;;3.94;;
15502;SDS011;7853;52.186;5.948;2023-07-31T04:08:35;12.39;;;4.76;;
15502;SDS011;7853;52.186;5.948;2023-07-31T04:09:35;9.26;;;4.27;;
15502;SDS011;7853;52.186;5.948;2023-07-31T04:10:35;8.68;;;3.87;;
15502;SDS011;7853;52.186;5.948;2023-07-31T04:11:35;10.46;;;4.24;;
15502;SDS011;7853;52.186;5.948;2023-07-31T04:12:35;8.39;;;3.67;;
15502;SDS011;7853;52.186;5.948;2023-07-31T04:13:35;8.97;;;3.95;;
15502;SDS011;7853;52.186;5.948;2023-07-31T04:14:35;10.70;;;4.49;;
15502;SDS011;7853;52.186;5.948;2023-07-31T04:15:35;8.51;;;3.82;;
15502;SDS011;7853;52.186;5.948;2023-07-31T04:16:35;9.18;;;4.08;;
15502;SDS011;7853;52.186;5.948;2023-07-31T04:17:35;11.83;;;4.01;;
15502;SDS011;7853;52.186;5.948;2023-07-31T04:18:35;10.75;;;4.08;;
15502;SDS011;7853;52.186;5.948;2023-07-31T04:19:35;10.72;;;4.09;;
15502;SDS011;7853;52.186;5.948;2023-07-31T04:20:35;10.93;;;4.80;;
15502;SDS011;7853;52.186;5.948;2023-07-31T04:21:35;10.17;;;4.64;;
15502;SDS011;7853;52.186;5.948;2023-07-31T04:22:35;12.52;;;4.79;;
15502;SDS011;7853;52.186;5.948;2023-07-31T04:23:35;9.75;;;3.99;;
15502;SDS011;7853;52.186;5.948;2023-07-31T04:24:35;9.79;;;3.96;;
15502;SDS011;7853;52.186;5.948;2023-07-31T04:25:35;13.13;;;5.13;;
15502;SDS011;7853;52.186;5.948;2023-07-31T04:26:35;14.24;;;5.22;;
15502;SDS011;7853;52.186;5.948;2023-07-31T04:27:35;11.42;;;4.60;;
15502;SDS011;7853;52.186;5.948;2023-07-31T04:28:35;10.70;;;4.31;;
15502;SDS011;7853;52.186;5.948;2023-07-31T04:29:35;12.14;;;4.78;;
15502;SDS011;7853;52.186;5.948;2023-07-31T04:30:35;9.43;;;4.22;;
15502;SDS011;7853;52.186;5.948;2023-07-31T04:31:35;10.67;;;4.32;;
15502;SDS011;7853;52.186;5.948;2023-07-31T04:32:35;12.54;;;5.09;;
15502;SDS011;7853;52.186;5.948;2023-07-31T04:33:35;12.09;;;3.96;;
15502;SDS011;7853;52.186;5.948;2023-07-31T04:34:35;10.48;;;4.09;;
15502;SDS011;7853;52.186;5.948;2023-07-31T04:35:35;11.01;;;4.67;;
15502;SDS011;7853;52.186;5.948;2023-07-31T04:36:35;10.08;;;4.22;;
15502;SDS011;7853;52.186;5.948;2023-07-31T04:37:35;10.59;;;4.11;;
15502;SDS011;7853;52.186;5.948;2023-07-31T04:38:35;11.24;;;4.55;;
15502;SDS011;7853;52.186;5.948;2023-07-31T04:39:35;11.24;;;3.88;;
15502;SDS011;7853;52.186;5.948;2023-07-31T04:40:35;11.19;;;4.46;;
15502;SDS011;7853;52.186;5.948;2023-07-31T04:41:35;10.51;;;4.68;;
15502;SDS011;7853;52.186;5.948;2023-07-31T04:42:35;9.59;;;3.72;;
15502;SDS011;7853;52.186;5.948;2023-07-31T04:43:35;13.01;;;4.64;;
15502;SDS011;7853;52.186;5.948;2023-07-31T04:44:35;12.11;;;4.42;;
15502;SDS011;7853;52.186;5.948;2023-07-31T04:45:35;12.07;;;4.77;;
15502;SDS011;7853;52.186;5.948;2023-07-31T04:46:35;10.13;;;4.32;;
15502;SDS011;7853;52.186;5.948;2023-07-31T04:47:35;7.57;;;3.72;;
15502;SDS011;7853;52.186;5.948;2023-07-31T04:48:35;11.94;;;4.36;;
15502;SDS011;7853;52.186;5.948;2023-07-31T04:49:35;11.69;;;3.83;;
15502;SDS011;7853;52.186;5.948;2023-07-31T04:50:35;9.03;;;3.82;;
15502;SDS011;7853;52.186;5.948;2023-07-31T04:51:35;10.14;;;3.85;;
15502;SDS011;7853;52.186;5.948;2023-07-31T04:52:35;9.60;;;4.49;;
15502;SDS011;7853;52.186;5.948;2023-07-31T04:53:36;10.19;;;4.79;;
15502;SDS011;7853;52.186;5.948;2023-07-31T04:54:35;12.18;;;4.53;;
15502;SDS011;7853;52.186;5.948;2023-07-31T04:55:35;8.62;;;3.73;;
15502;SDS011;7853;52.186;5.948;2023-07-31T04:56:35;11.31;;;4.71;;
15502;SDS011;7853;52.186;5.948;2023-07-31T04:57:35;10.71;;;4.03;;
15502;SDS011;7853;52.186;5.948;2023-07-31T04:58:35;12.65;;;4.47;;
15502;SDS011;7853;52.186;5.948;2023-07-31T04:59:35;11.64;;;4.66;;
15502;SDS011;7853;52.186;5.948;2023-07-31T05:00:35;10.50;;;4.75;;
15502;SDS011;7853;52.186;5.948;2023-07-31T05:01:35;10.46;;;4.49;;
15502;SDS011;7853;52.186;5.948;2023-07-31T05:02:35;10.30;;;4.28;;
15502;SDS011;7853;52.186;5.948;2023-07-31T05:03:35;11.33;;;3.92;;
15502;SDS011;7853;52.186;5.948;2023-07-31T05:04:35;9.80;;;4.47;;
15502;SDS011;7853;52.186;5.948;2023-07-31T05:05:35;13.01;;;4.05;;
15502;SDS011;7853;52.186;5.948;2023-07-31T05:06:35;12.30;;;5.59;;
15502;SDS011;7853;52.186;5.948;2023-07-31T05:07:35;11.24;;;4.40;;
15502;SDS011;7853;52.186;5.948;2023-07-31T05:08:35;10.31;;;4.40;;
15502;SDS011;7853;52.186;5.948;2023-07-31T05:09:35;10.90;;;4.26;;
15502;SDS011;7853;52.186;5.948;2023-07-31T05:10:35;13.06;;;4.43;;
15502;SDS011;7853;52.186;5.948;2023-07-31T05:11:35;10.89;;;4.19;;
15502;SDS011;7853;52.186;5.948;2023-07-31T05:12:35;13.11;;;4.63;;
15502;SDS011;7853;52.186;5.948;2023-07-31T05:13:35;11.75;;;4.67;;
15502;SDS011;7853;52.186;5.948;2023-07-31T05:14:35;10.42;;;4.27;;
15502;SDS011;7853;52.186;5.948;2023-07-31T05:15:35;11.40;;;4.61;;
15502;SDS011;7853;52.186;5.948;2023-07-31T05:16:35;10.74;;;4.09;;
15502;SDS011;7853;52.186;5.948;2023-07-31T05:17:35;10.76;;;4.26;;
15502;SDS011;7853;52.186;5.948;2023-07-31T05:18:35;10.80;;;4.07;;
15502;SDS011;7853;52.186;5.948;2023-07-31T05:19:35;10.28;;;4.29;;
15502;SDS011;7853;52.186;5.948;2023-07-31T05:20:35;9.12;;;4.04;;
15502;SDS011;7853;52.186;5.948;2023-07-31T05:21:35;10.14;;;3.94;;
15502;SDS011;7853;52.186;5.948;2023-07-31T05:22:35;8.97;;;3.73;;
15502;SDS011;7853;52.186;5.948;2023-07-31T05:23:37;12.39;;;4.84;;
15502;SDS011;7853;52.186;5.948;2023-07-31T05:24:33;10.38;;;4.39;;
15502;SDS011;7853;52.186;5.948;2023-07-31T05:25:34;11.04;;;4.53;;
15502;SDS011;7853;52.186;5.948;2023-07-31T05:26:34;9.00;;;3.94;;
15502;SDS011;7853;52.186;5.948;2023-07-31T05:27:35;11.47;;;3.98;;
15502;SDS011;7853;52.186;5.948;2023-07-31T05:28:35;10.04;;;4.62;;
15502;SDS011;7853;52.186;5.948;2023-07-31T05:29:35;9.90;;;3.73;;
15502;SDS011;7853;52.186;5.948;2023-07-31T05:30:35;8.65;;;3.77;;
15502;SDS011;7853;52.186;5.948;2023-07-31T05:31:35;8.61;;;3.96;;
15502;SDS011;7853;52.186;5.948;2023-07-31T05:32:35;9.79;;;3.62;;
15502;SDS011;7853;52.186;5.948;2023-07-31T05:33:35;11.34;;;4.02;;
15502;SDS011;7853;52.186;5.948;2023-07-31T05:34:35;10.66;;;4.16;;
15502;SDS011;7853;52.186;5.948;2023-07-31T05:35:35;9.62;;;4.27;;
15502;SDS011;7853;52.186;5.948;2023-07-31T05:36:35;9.18;;;3.84;;
15502;SDS011;7853;52.186;5.948;2023-07-31T05:37:35;7.76;;;3.62;;
15502;SDS011;7853;52.186;5.948;2023-07-31T05:38:35;7.82;;;3.42;;
15502;SDS011;7853;52.186;5.948;2023-07-31T05:39:35;8.78;;;4.02;;
15502;SDS011;7853;52.186;5.948;2023-07-31T05:40:35;7.03;;;3.02;;
15502;SDS011;7853;52.186;5.948;2023-07-31T05:41:35;9.07;;;3.36;;
15502;SDS011;7853;52.186;5.948;2023-07-31T05:42:35;5.69;;;3.06;;
15502;SDS011;7853;52.186;5.948;2023-07-31T05:43:35;8.23;;;3.76;;
15502;SDS011;7853;52.186;5.948;2023-07-31T05:44:35;9.08;;;4.19;;
15502;SDS011;7853;52.186;5.948;2023-07-31T05:45:35;10.22;;;3.86;;
15502;SDS011;7853;52.186;5.948;2023-07-31T05:46:35;7.18;;;3.63;;
15502;SDS011;7853;52.186;5.948;2023-07-31T05:47:35;9.66;;;3.77;;
15502;SDS011;7853;52.186;5.948;2023-07-31T05:48:35;8.98;;;4.10;;
15502;SDS011;7853;52.186;5.948;2023-07-31T05:49:35;9.63;;;4.40;;
15502;SDS011;7853;52.186;5.948;2023-07-31T05:50:35;7.80;;;3.24;;
15502;SDS011;7853;52.186;5.948;2023-07-31T05:51:35;8.24;;;3.83;;
15502;SDS011;7853;52.186;5.948;2023-07-31T05:52:35;7.28;;;3.47;;
15502;SDS011;7853;52.186;5.948;2023-07-31T05:53:35;7.95;;;4.21;;
15502;SDS011;7853;52.186;5.948;2023-07-31T05:54:35;8.69;;;4.15;;
15502;SDS011;7853;52.186;5.948;2023-07-31T05:55:35;10.02;;;4.37;;
15502;SDS011;7853;52.186;5.948;2023-07-31T05:56:35;6.54;;;3.37;;
15502;SDS011;7853;52.186;5.948;2023-07-31T05:57:35;8.61;;;4.03;;
15502;SDS011;7853;52.186;5.948;2023-07-31T05:58:35;6.98;;;3.16;;
15502;SDS011;7853;52.186;5.948;2023-07-31T05:59:35;8.41;;;4.14;;
15502;SDS011;7853;52.186;5.948;2023-07-31T06:00:35;6.96;;;3.74;;
15502;SDS011;7853;52.186;5.948;2023-07-31T06:01:35;8.38;;;3.91;;
15502;SDS011;7853;52.186;5.948;2023-07-31T06:02:35;10.23;;;4.26;;
15502;SDS011;7853;52.186;5.948;2023-07-31T06:03:35;8.53;;;3.36;;
15502;SDS011;7853;52.186;5.948;2023-07-31T06:04:35;6.52;;;3.08;;
15502;SDS011;7853;52.186;5.948;2023-07-31T06:05:35;7.50;;;3.27;;
15502;SDS011;7853;52.186;5.948;2023-07-31T06:06:35;8.52;;;4.04;;